sensor_id;sensor_type;location;lat;lon;timestamp;pressure;altitude;pressure_sealevel;temperature;humidity
9325;BME280;4701;51.566;6.776;2023-02-17T07:02:46;101544.84;;;9.71;100.00
9325;BME280;4701;51.566;6.776;2023-02-17T07:04:48;101535.97;;;9.75;100.00
9325;BME280;4701;51.566;6.776;2023-02-17T07:06:50;101526.25;;;9.79;100.00
9325;BME280;4701;51.566;6.776;2023-02-17T07:08:52;101529.09;;;9.84;100.00
9325;BME280;4701;51.566;6.776;2023-02-17T07:10:54;101535.59;;;9.83;100.00
9325;BME280;4701;51.566;6.776;2023-02-17T07:12:56;101545.50;;;9.90;100.00
9325;BME280;4701;51.566;6.776;2023-02-17T07:14:58;101539.00;;;9.91;100.00
9325;BME280;4701;51.566;6.776;2023-02-17T07:17:00;101544.88;;;9.99;100.00
9325;BME280;4701;51.566;6.776;2023-02-17T07:19:03;101536.72;;;9.99;100.00
9325;BME280;4701;51.566;6.776;2023-02-17T07:21:06;101540.25;;;10.00;100.00
9325;BME280;4701;51.566;6.776;2023-02-17T07:23:08;101540.09;;;10.06;100.00
9325;BME280;4701;51.566;6.776;2023-02-17T07:25:10;101532.53;;;10.08;100.00
9325;BME280;4701;51.566;6.776;2023-02-17T07:27:12;101543.19;;;10.10;100.00
9325;BME280;4701;51.566;6.776;2023-02-17T07:29:14;101536.56;;;10.06;100.00
9325;BME280;4701;51.566;6.776;2023-02-17T07:31:16;101536.91;;;10.09;100.00
9325;BME280;4701;51.566;6.776;2023-02-17T07:33:18;101535.59;;;10.12;100.00
9325;BME280;4701;51.566;6.776;2023-02-17T07:35:21;101530.47;;;10.15;100.00
9325;BME280;4701;51.566;6.776;2023-02-17T07:37:23;101542.34;;;10.09;100.00
9325;BME280;4701;51.566;6.776;2023-02-17T07:39:25;101526.00;;;10.09;100.00
9325;BME280;4701;51.566;6.776;2023-02-17T07:41:26;101528.56;;;10.16;100.00
9325;BME280;4701;51.566;6.776;2023-02-17T07:43:30;101529.41;;;10.16;100.00
9325;BME280;4701;51.566;6.776;2023-02-17T07:45:31;101532.75;;;10.18;100.00
9325;BME280;4701;51.566;6.776;2023-02-17T07:47:34;101522.28;;;10.27;100.00
9325;BME280;4701;51.566;6.776;2023-02-17T07:49:35;101536.63;;;10.22;100.00
9325;BME280;4701;51.566;6.776;2023-02-17T07:51:39;101520.28;;;10.22;100.00
9325;BME280;4701;51.566;6.776;2023-02-17T07:53:40;101520.63;;;10.26;100.00
9325;BME280;4701;51.566;6.776;2023-02-17T07:55:42;101514.59;;;10.24;100.00
9325;BME280;4701;51.566;6.776;2023-02-17T07:57:44;101515.19;;;10.26;100.00
9325;BME280;4701;51.566;6.776;2023-02-17T07:59:46;101539.09;;;10.24;100.00
9325;BME280;4701;51.566;6.776;2023-02-17T08:01:47;101517.97;;;10.31;100.00
9325;BME280;4701;51.566;6.776;2023-02-17T08:03:50;101517.75;;;10.33;100.00
9325;BME280;4701;51.566;6.776;2023-02-17T08:05:52;101512.88;;;10.35;100.00
9325;BME280;4701;51.566;6.776;2023-02-17T08:07:55;101521.06;;;10.35;100.00
9325;BME280;4701;51.566;6.776;2023-02-17T08:10:11;101526.66;;;10.28;100.00
9325;BME280;4701;51.566;6.776;2023-02-17T08:12:33;101533.00;;;10.34;100.00
9325;BME280;4701;51.566;6.776;2023-02-17T08:14:55;101508.56;;;10.39;100.00
9325;BME280;4701;51.566;6.776;2023-02-17T08:16:58;101506.94;;;10.38;100.00
9325;BME280;4701;51.566;6.776;2023-02-17T08:18:59;101504.22;;;10.38;100.00
9325;BME280;4701;51.566;6.776;2023-02-17T08:21:01;101499.09;;;10.41;100.00
9325;BME280;4701;51.566;6.776;2023-02-17T08:23:04;101508.66;;;10.44;100.00
9325;BME280;4701;51.566;6.776;2023-02-17T08:25:06;101521.66;;;10.53;100.00
9325;BME280;4701;51.566;6.776;2023-02-17T08:27:08;101510.41;;;10.50;100.00
9325;BME280;4701;51.566;6.776;2023-02-17T08:29:10;101516.69;;;10.50;100.00
9325;BME280;4701;51.566;6.776;2023-02-17T08:31:16;101496.34;;;10.58;100.00
9325;BME280;4701;51.566;6.776;2023-02-17T08:33:18;101499.84;;;10.53;100.00
9325;BME280;4701;51.566;6.776;2023-02-17T08:35:20;101507.25;;;10.58;100.00
9325;BME280;4701;51.566;6.776;2023-02-17T08:37:23;101510.34;;;10.61;100.00
9325;BME280;4701;51.566;6.776;2023-02-17T08:39:26;101513.28;;;10.60;100.00
9325;BME280;4701;51.566;6.776;2023-02-17T08:41:30;101504.13;;;10.66;100.00
9325;BME280;4701;51.566;6.776;2023-02-17T08:43:32;101502.22;;;10.67;100.00
9325;BME280;4701;51.566;6.776;2023-02-17T08:45:34;101508.00;;;10.70;100.00
9325;BME280;4701;51.566;6.776;2023-02-17T08:47:37;101504.69;;;10.68;100.00
9325;BME280;4701;51.566;6.776;2023-02-17T08:49:39;101510.75;;;10.70;100.00
9325;BME280;4701;51.566;6.776;2023-02-17T08:51:41;101526.16;;;10.81;100.00
9325;BME280;4701;51.566;6.776;2023-02-17T08:53:43;101518.06;;;10.86;100.00
9325;BME280;4701;51.566;6.776;2023-02-17T08:55:47;101515.19;;;10.76;100.00
9325;BME280;4701;51.566;6.776;2023-02-17T08:57:49;101508.56;;;10.89;100.00
9325;BME280;4701;51.566;6.776;2023-02-17T08:59:51;101508.56;;;10.89;100.00
9325;BME280;4701;51.566;6.776;2023-02-17T09:01:53;101506.16;;;10.92;100.00
9325;BME280;4701;51.566;6.776;2023-02-17T09:03:57;101504.00;;;10.94;100.00
9325;BME280;4701;51.566;6.776;2023-02-17T09:05:59;101501.03;;;10.96;100.00
9325;BME280;4701;51.566;6.776;2023-02-17T09:08:01;101510.06;;;10.96;100.00
9325;BME280;4701;51.566;6.776;2023-02-17T09:10:03;101510.59;;;10.98;100.00
9325;BME280;4701;51.566;6.776;2023-02-17T09:12:07;101504.16;;;11.05;100.00
9325;BME280;4701;51.566;6.776;2023-02-17T09:14:09;101519.78;;;11.09;100.00
9325;BME280;4701;51.566;6.776;2023-02-17T09:16:11;101510.75;;;11.09;100.00
9325;BME280;4701;51.566;6.776;2023-02-17T09:18:12;101513.56;;;11.14;100.00
9325;BME280;4701;51.566;6.776;2023-02-17T09:20:14;101499.34;;;11.12;100.00
9325;BME280;4701;51.566;6.776;2023-02-17T09:22:18;101522.31;;;11.16;100.00
9325;BME280;4701;51.566;6.776;2023-02-17T09:24:21;101507.94;;;11.20;100.00
9325;BME280;4701;51.566;6.776;2023-02-17T09:26:23;101513.44;;;11.25;100.00
9325;BME280;4701;51.566;6.776;2023-02-17T09:28:26;101517.63;;;11.33;100.00
9325;BME280;4701;51.566;6.776;2023-02-17T09:30:28;101515.25;;;11.36;100.00
9325;BME280;4701;51.566;6.776;2023-02-17T09:32:30;101520.38;;;11.33;100.00
9325;BME280;4701;51.566;6.776;2023-02-17T09:34:34;101526.78;;;11.44;99.78
9325;BME280;4701;51.566;6.776;2023-02-17T09:36:38;101541.41;;;11.54;100.00
9325;BME280;4701;51.566;6.776;2023-02-17T09:38:40;101565.16;;;11.54;99.49
9325;BME280;4701;51.566;6.776;2023-02-17T09:40:45;101540.00;;;11.52;99.08
9325;BME280;4701;51.566;6.776;2023-02-17T09:42:49;101543.31;;;11.54;99.23
9325;BME280;4701;51.566;6.776;2023-02-17T09:44:56;101544.44;;;11.58;98.79
9325;BME280;4701;51.566;6.776;2023-02-17T09:47:03;101561.94;;;11.57;98.64
9325;BME280;4701;51.566;6.776;2023-02-17T09:49:11;101569.53;;;11.55;98.48
9325;BME280;4701;51.566;6.776;2023-02-17T09:51:20;101569.44;;;11.50;99.08
9325;BME280;4701;51.566;6.776;2023-02-17T09:53:27;101563.69;;;11.46;99.45
9325;BME280;4701;51.566;6.776;2023-02-17T09:55:34;101555.78;;;11.50;99.37
9325;BME280;4701;51.566;6.776;2023-02-17T09:57:44;101570.81;;;11.47;99.03
9325;BME280;4701;51.566;6.776;2023-02-17T09:59:54;101566.41;;;11.46;99.56
9325;BME280;4701;51.566;6.776;2023-02-17T10:01:58;101568.94;;;11.53;99.13
9325;BME280;4701;51.566;6.776;2023-02-17T10:04:04;101569.19;;;11.51;98.87
9325;BME280;4701;51.566;6.776;2023-02-17T10:06:12;101561.84;;;11.52;99.09
9325;BME280;4701;51.566;6.776;2023-02-17T10:08:17;101557.84;;;11.59;98.94
9325;BME280;4701;51.566;6.776;2023-02-17T10:10:23;101580.25;;;11.61;98.66
9325;BME280;4701;51.566;6.776;2023-02-17T10:12:29;101593.91;;;11.61;97.87
9325;BME280;4701;51.566;6.776;2023-02-17T10:14:40;101603.69;;;11.57;98.42
9325;BME280;4701;51.566;6.776;2023-02-17T10:16:48;101610.25;;;11.56;98.17
9325;BME280;4701;51.566;6.776;2023-02-17T10:18:58;101602.88;;;11.57;98.19
9325;BME280;4701;51.566;6.776;2023-02-17T10:21:03;101625.09;;;11.65;97.52
9325;BME280;4701;51.566;6.776;2023-02-17T10:23:13;101598.06;;;11.64;98.00
9325;BME280;4701;51.566;6.776;2023-02-17T10:25:17;101582.50;;;11.64;97.95
9325;BME280;4701;51.566;6.776;2023-02-17T10:27:35;101581.91;;;11.62;97.69
9325;BME280;4701;51.566;6.776;2023-02-17T10:29:46;101557.09;;;11.64;97.42
9325;BME280;4701;51.566;6.776;2023-02-17T10:32:03;101557.91;;;11.64;97.46
9325;BME280;4701;51.566;6.776;2023-02-17T10:34:12;101549.41;;;11.61;97.66
9325;BME280;4701;51.566;6.776;2023-02-17T10:36:24;101547.00;;;11.64;97.94
9325;BME280;4701;51.566;6.776;2023-02-17T10:38:36;101557.59;;;11.83;97.11
9325;BME280;4701;51.566;6.776;2023-02-17T10:40:45;101560.41;;;11.88;96.04
9325;BME280;4701;51.566;6.776;2023-02-17T10:42:49;101565.94;;;11.93;95.88
9325;BME280;4701;51.566;6.776;2023-02-17T10:45:00;101551.75;;;11.96;95.52
9325;BME280;4701;51.566;6.776;2023-02-17T10:47:08;101550.47;;;12.03;95.35
9325;BME280;4701;51.566;6.776;2023-02-17T10:49:17;101554.53;;;12.01;95.37
9325;BME280;4701;51.566;6.776;2023-02-17T10:51:22;101548.63;;;12.09;95.39
9325;BME280;4701;51.566;6.776;2023-02-17T10:53:29;101581.41;;;12.09;95.15
9325;BME280;4701;51.566;6.776;2023-02-17T10:55:35;101545.03;;;12.03;94.72
9325;BME280;4701;51.566;6.776;2023-02-17T10:57:39;101552.63;;;12.01;95.29
9325;BME280;4701;51.566;6.776;2023-02-17T10:59:44;101557.09;;;12.07;94.86
9325;BME280;4701;51.566;6.776;2023-02-17T11:01:46;101532.78;;;12.11;94.65
9325;BME280;4701;51.566;6.776;2023-02-17T11:04:00;101550.34;;;12.15;93.40
9325;BME280;4701;51.566;6.776;2023-02-17T11:06:05;101543.22;;;12.14;93.46
9325;BME280;4701;51.566;6.776;2023-02-17T11:08:28;101534.19;;;12.13;93.10
9325;BME280;4701;51.566;6.776;2023-02-17T11:10:32;101536.47;;;12.22;92.43
9325;BME280;4701;51.566;6.776;2023-02-17T11:12:39;101538.41;;;12.26;92.28
9325;BME280;4701;51.566;6.776;2023-02-17T11:14:44;101533.25;;;12.30;91.97
9325;BME280;4701;51.566;6.776;2023-02-17T11:16:50;101539.66;;;12.40;91.64
9325;BME280;4701;51.566;6.776;2023-02-17T11:18:54;101527.09;;;12.44;90.95
9325;BME280;4701;51.566;6.776;2023-02-17T11:21:02;101528.06;;;12.60;90.66
9325;BME280;4701;51.566;6.776;2023-02-17T11:23:21;101529.53;;;12.73;90.03
9325;BME280;4701;51.566;6.776;2023-02-17T11:25:26;101527.56;;;12.68;89.41
9325;BME280;4701;51.566;6.776;2023-02-17T11:27:28;101551.94;;;12.70;88.55
9325;BME280;4701;51.566;6.776;2023-02-17T11:29:30;101525.66;;;12.69;89.23
9325;BME280;4701;51.566;6.776;2023-02-17T11:31:33;101551.69;;;12.71;88.51
9325;BME280;4701;51.566;6.776;2023-02-17T11:33:37;101544.31;;;12.77;88.02
9325;BME280;4701;51.566;6.776;2023-02-17T11:35:47;101559.38;;;12.74;88.04
9325;BME280;4701;51.566;6.776;2023-02-17T11:37:50;101531.44;;;12.72;87.50
9325;BME280;4701;51.566;6.776;2023-02-17T11:39:54;101547.38;;;12.80;87.54
9325;BME280;4701;51.566;6.776;2023-02-17T11:41:56;101549.31;;;12.85;87.13
9325;BME280;4701;51.566;6.776;2023-02-17T11:43:58;101557.81;;;12.83;86.63
9325;BME280;4701;51.566;6.776;2023-02-17T11:46:07;101554.19;;;12.78;86.52
9325;BME280;4701;51.566;6.776;2023-02-17T11:48:28;101561.50;;;12.67;86.28
9325;BME280;4701;51.566;6.776;2023-02-17T11:50:40;101520.13;;;12.59;86.78
9325;BME280;4701;51.566;6.776;2023-02-17T11:52:56;101510.28;;;12.58;87.19
9325;BME280;4701;51.566;6.776;2023-02-17T11:55:14;101517.44;;;12.64;87.01
9325;BME280;4701;51.566;6.776;2023-02-17T11:57:33;101518.53;;;12.68;86.47
9325;BME280;4701;51.566;6.776;2023-02-17T11:59:51;101498.88;;;12.71;86.20
9325;BME280;4701;51.566;6.776;2023-02-17T12:02:13;101505.19;;;12.71;86.76
9325;BME280;4701;51.566;6.776;2023-02-17T12:04:23;101511.50;;;12.77;86.47
9325;BME280;4701;51.566;6.776;2023-02-17T12:06:35;101523.81;;;12.74;86.72
9325;BME280;4701;51.566;6.776;2023-02-17T12:08:48;101508.50;;;12.78;86.72
9325;BME280;4701;51.566;6.776;2023-02-17T12:11:01;101504.19;;;12.87;86.51
9325;BME280;4701;51.566;6.776;2023-02-17T12:13:18;101487.03;;;12.97;85.91
9325;BME280;4701;51.566;6.776;2023-02-17T12:15:28;101510.50;;;12.93;86.30
9325;BME280;4701;51.566;6.776;2023-02-17T12:17:38;101508.41;;;13.00;86.54
9325;BME280;4701;51.566;6.776;2023-02-17T12:19:49;101504.28;;;13.03;86.71
9325;BME280;4701;51.566;6.776;2023-02-17T12:22:07;101512.28;;;13.09;86.20
9325;BME280;4701;51.566;6.776;2023-02-17T12:26:43;101496.63;;;13.00;86.63
9325;BME280;4701;51.566;6.776;2023-02-17T12:28:58;101486.19;;;12.97;87.28
9325;BME280;4701;51.566;6.776;2023-02-17T12:31:09;101533.78;;;12.91;87.23
9325;BME280;4701;51.566;6.776;2023-02-17T12:33:26;101497.63;;;12.88;87.87
9325;BME280;4701;51.566;6.776;2023-02-17T12:35:39;101502.28;;;12.88;88.03
9325;BME280;4701;51.566;6.776;2023-02-17T12:37:57;101529.97;;;12.92;88.03
9325;BME280;4701;51.566;6.776;2023-02-17T12:40:05;101545.56;;;12.91;88.16
9325;BME280;4701;51.566;6.776;2023-02-17T12:42:16;101520.03;;;12.85;88.43
9325;BME280;4701;51.566;6.776;2023-02-17T12:44:22;101531.53;;;12.82;88.34
9325;BME280;4701;51.566;6.776;2023-02-17T12:46:31;101523.84;;;12.79;88.95
9325;BME280;4701;51.566;6.776;2023-02-17T12:48:37;101530.13;;;12.80;88.81
9325;BME280;4701;51.566;6.776;2023-02-17T12:50:49;101500.03;;;12.80;88.35
9325;BME280;4701;51.566;6.776;2023-02-17T12:52:54;101495.72;;;12.84;88.32
9325;BME280;4701;51.566;6.776;2023-02-17T12:55:03;101511.56;;;12.87;88.54
9325;BME280;4701;51.566;6.776;2023-02-17T12:57:13;101523.66;;;12.91;88.48
9325;BME280;4701;51.566;6.776;2023-02-17T12:59:18;101521.47;;;12.93;88.60
9325;BME280;4701;51.566;6.776;2023-02-17T13:01:23;101515.72;;;12.89;88.63
9325;BME280;4701;51.566;6.776;2023-02-17T13:03:28;101524.25;;;12.98;88.25
9325;BME280;4701;51.566;6.776;2023-02-17T13:05:33;101515.47;;;12.96;88.51
9325;BME280;4701;51.566;6.776;2023-02-17T13:07:44;101506.50;;;13.01;88.31
9325;BME280;4701;51.566;6.776;2023-02-17T13:09:54;101505.34;;;12.97;88.57
9325;BME280;4701;51.566;6.776;2023-02-17T13:12:15;101510.06;;;13.06;88.52
9325;BME280;4701;51.566;6.776;2023-02-17T13:14:26;101531.50;;;13.14;88.08
9325;BME280;4701;51.566;6.776;2023-02-17T13:16:29;101510.06;;;13.06;88.36
9325;BME280;4701;51.566;6.776;2023-02-17T13:18:43;101510.69;;;13.13;87.87
9325;BME280;4701;51.566;6.776;2023-02-17T13:20:55;101531.44;;;13.09;87.87
9325;BME280;4701;51.566;6.776;2023-02-17T13:23:07;101524.09;;;13.15;87.48
9325;BME280;4701;51.566;6.776;2023-02-17T13:25:11;101519.38;;;13.05;87.64
9325;BME280;4701;51.566;6.776;2023-02-17T13:27:21;101535.47;;;13.02;88.03
9325;BME280;4701;51.566;6.776;2023-02-17T13:29:33;101562.03;;;13.01;88.25
9325;BME280;4701;51.566;6.776;2023-02-17T13:31:50;101544.81;;;13.01;87.93
9325;BME280;4701;51.566;6.776;2023-02-17T13:33:54;101568.63;;;13.05;87.92
9325;BME280;4701;51.566;6.776;2023-02-17T13:35:57;101563.13;;;13.00;88.01
9325;BME280;4701;51.566;6.776;2023-02-17T13:37:59;101568.03;;;12.98;88.42
9325;BME280;4701;51.566;6.776;2023-02-17T13:40:24;101572.44;;;13.04;87.89
9325;BME280;4701;51.566;6.776;2023-02-17T13:42:35;101563.13;;;13.00;87.62
9325;BME280;4701;51.566;6.776;2023-02-17T13:44:38;101591.25;;;12.96;87.46
9325;BME280;4701;51.566;6.776;2023-02-17T13:46:41;101582.78;;;12.92;88.23
9325;BME280;4701;51.566;6.776;2023-02-17T13:48:44;101575.66;;;12.91;88.06
9325;BME280;4701;51.566;6.776;2023-02-17T13:50:49;101580.03;;;12.92;88.22
9325;BME280;4701;51.566;6.776;2023-02-17T13:52:51;101582.72;;;12.87;88.49
9325;BME280;4701;51.566;6.776;2023-02-17T13:54:54;101589.28;;;12.86;88.39
9325;BME280;4701;51.566;6.776;2023-02-17T13:56:56;101584.38;;;12.88;88.25
9325;BME280;4701;51.566;6.776;2023-02-17T13:59:07;101589.00;;;12.87;88.40
9325;BME280;4701;51.566;6.776;2023-02-17T14:01:14;101592.75;;;12.76;88.71
9325;BME280;4701;51.566;6.776;2023-02-17T14:03:20;101612.72;;;12.77;88.65
9325;BME280;4701;51.566;6.776;2023-02-17T14:05:26;101610.75;;;12.67;89.05
9325;BME280;4701;51.566;6.776;2023-02-17T14:07:28;101614.84;;;12.70;89.16
9325;BME280;4701;51.566;6.776;2023-02-17T14:09:31;101601.41;;;12.68;89.39
9325;BME280;4701;51.566;6.776;2023-02-17T14:11:33;101615.38;;;12.67;89.20
9325;BME280;4701;51.566;6.776;2023-02-17T14:13:37;101601.13;;;12.65;89.23
9325;BME280;4701;51.566;6.776;2023-02-17T14:15:53;101602.19;;;12.59;89.98
9325;BME280;4701;51.566;6.776;2023-02-17T14:17:55;101617.22;;;12.61;89.75
9325;BME280;4701;51.566;6.776;2023-02-17T14:19:57;101621.09;;;12.65;90.29
9325;BME280;4701;51.566;6.776;2023-02-17T14:22:02;101615.22;;;12.51;90.86
9325;BME280;4701;51.566;6.776;2023-02-17T14:24:04;101603.44;;;12.51;92.18
9325;BME280;4701;51.566;6.776;2023-02-17T14:26:11;101628.28;;;12.44;93.57
9325;BME280;4701;51.566;6.776;2023-02-17T14:28:18;101626.09;;;12.46;93.66
9325;BME280;4701;51.566;6.776;2023-02-17T14:30:28;101628.09;;;12.29;95.28
9325;BME280;4701;51.566;6.776;2023-02-17T14:32:33;101638.63;;;12.16;97.00
9325;BME280;4701;51.566;6.776;2023-02-17T14:34:36;101638.13;;;11.97;98.33
9325;BME280;4701;51.566;6.776;2023-02-17T14:36:39;101631.56;;;11.98;99.43
9325;BME280;4701;51.566;6.776;2023-02-17T14:38:41;101622.75;;;11.91;99.63
9325;BME280;4701;51.566;6.776;2023-02-17T14:40:43;101618.53;;;11.83;100.00
9325;BME280;4701;51.566;6.776;2023-02-17T14:42:45;101621.25;;;11.83;100.00
9325;BME280;4701;51.566;6.776;2023-02-17T14:44:47;101629.31;;;11.73;100.00
9325;BME280;4701;51.566;6.776;2023-02-17T14:46:48;101620.19;;;11.67;100.00
9325;BME280;4701;51.566;6.776;2023-02-17T14:48:52;101635.50;;;11.68;100.00
9325;BME280;4701;51.566;6.776;2023-02-17T14:50:55;101643.31;;;11.60;100.00
9325;BME280;4701;51.566;6.776;2023-02-17T14:52:57;101630.72;;;11.59;100.00
9325;BME280;4701;51.566;6.776;2023-02-17T14:54:58;101621.47;;;11.60;100.00
9325;BME280;4701;51.566;6.776;2023-02-17T14:57:04;101652.50;;;11.54;100.00
9325;BME280;4701;51.566;6.776;2023-02-17T14:59:08;101636.44;;;11.57;100.00
9325;BME280;4701;51.566;6.776;2023-02-17T15:01:11;101624.13;;;11.55;100.00
9325;BME280;4701;51.566;6.776;2023-02-17T15:03:14;101648.47;;;11.56;100.00
9325;BME280;4701;51.566;6.776;2023-02-17T15:05:17;101642.03;;;11.46;100.00
9325;BME280;4701;51.566;6.776;2023-02-17T15:07:19;101634.13;;;11.49;100.00
9325;BME280;4701;51.566;6.776;2023-02-17T15:09:27;101630.28;;;11.45;100.00
9325;BME280;4701;51.566;6.776;2023-02-17T15:11:32;101631.00;;;11.41;100.00
9325;BME280;4701;51.566;6.776;2023-02-17T15:13:36;101635.97;;;11.44;100.00
9325;BME280;4701;51.566;6.776;2023-02-17T15:15:38;101615.31;;;11.48;100.00
9325;BME280;4701;51.566;6.776;2023-02-17T15:17:44;101626.22;;;11.48;100.00
9325;BME280;4701;51.566;6.776;2023-02-17T15:19:45;101624.63;;;11.52;100.00
9325;BME280;4701;51.566;6.776;2023-02-17T15:21:50;101624.63;;;11.52;100.00
9325;BME280;4701;51.566;6.776;2023-02-17T15:23:53;101629.06;;;11.58;100.00
9325;BME280;4701;51.566;6.776;2023-02-17T15:25:58;101637.59;;;11.61;100.00
9325;BME280;4701;51.566;6.776;2023-02-17T15:28:00;101644.38;;;11.59;100.00
9325;BME280;4701;51.566;6.776;2023-02-17T15:30:02;101647.38;;;11.57;100.00
9325;BME280;4701;51.566;6.776;2023-02-17T15:32:13;101642.88;;;11.68;100.00
9325;BME280;4701;51.566;6.776;2023-02-17T15:34:18;101666.88;;;11.66;100.00
9325;BME280;4701;51.566;6.776;2023-02-17T15:36:20;101653.50;;;11.64;99.50
9325;BME280;4701;51.566;6.776;2023-02-17T15:38:23;101639.56;;;11.66;100.00
9325;BME280;4701;51.566;6.776;2023-02-17T15:40:27;101647.25;;;11.69;99.34
9325;BME280;4701;51.566;6.776;2023-02-17T15:42:29;101675.66;;;11.68;98.76
9325;BME280;4701;51.566;6.776;2023-02-17T15:44:37;101643.94;;;11.67;98.58
9325;BME280;4701;51.566;6.776;2023-02-17T15:46:40;101664.22;;;11.71;98.64
9325;BME280;4701;51.566;6.776;2023-02-17T15:48:44;101656.03;;;11.71;98.55
9325;BME280;4701;51.566;6.776;2023-02-17T15:50:47;101650.06;;;11.74;98.49
9325;BME280;4701;51.566;6.776;2023-02-17T15:52:49;101656.03;;;11.71;98.52
9325;BME280;4701;51.566;6.776;2023-02-17T15:54:53;101655.13;;;11.65;98.77
9325;BME280;4701;51.566;6.776;2023-02-17T15:56:55;101648.09;;;11.69;98.93
9325;BME280;4701;51.566;6.776;2023-02-17T15:58:57;101648.69;;;11.71;98.94
9325;BME280;4701;51.566;6.776;2023-02-17T16:01:01;101667.69;;;11.66;98.94
9325;BME280;4701;51.566;6.776;2023-02-17T16:03:03;101671.00;;;11.68;98.48
9325;BME280;4701;51.566;6.776;2023-02-17T16:05:05;101644.78;;;11.67;98.95
9325;BME280;4701;51.566;6.776;2023-02-17T16:07:07;101653.50;;;11.64;98.84
9325;BME280;4701;51.566;6.776;2023-02-17T16:09:09;101660.09;;;11.68;98.52
9325;BME280;4701;51.566;6.776;2023-02-17T16:11:17;101668.28;;;11.68;98.37
9325;BME280;4701;51.566;6.776;2023-02-17T16:13:20;101681.94;;;11.68;98.01
9325;BME280;4701;51.566;6.776;2023-02-17T16:15:24;101668.28;;;11.68;98.31
9325;BME280;4701;51.566;6.776;2023-02-17T16:17:26;101676.16;;;11.65;97.96
9325;BME280;4701;51.566;6.776;2023-02-17T16:19:28;101678.06;;;11.64;97.69
9325;BME280;4701;51.566;6.776;2023-02-17T16:21:30;101678.38;;;11.68;97.43
9325;BME280;4701;51.566;6.776;2023-02-17T16:23:32;101692.03;;;11.68;97.57
9325;BME280;4701;51.566;6.776;2023-02-17T16:25:34;101707.59;;;11.67;97.25
9325;BME280;4701;51.566;6.776;2023-02-17T16:27:38;101714.72;;;11.68;97.03
9325;BME280;4701;51.566;6.776;2023-02-17T16:29:41;101708.94;;;11.65;96.72
9325;BME280;4701;51.566;6.776;2023-02-17T16:31:43;101711.50;;;11.71;96.46
9325;BME280;4701;51.566;6.776;2023-02-17T16:33:45;101715.28;;;11.70;96.11
9325;BME280;4701;51.566;6.776;2023-02-17T16:35:48;101718.34;;;11.74;95.56
9325;BME280;4701;51.566;6.776;2023-02-17T16:37:53;101719.69;;;11.71;95.62
9325;BME280;4701;51.566;6.776;2023-02-17T16:39:56;101725.38;;;11.70;95.87
9325;BME280;4701;51.566;6.776;2023-02-17T16:41:58;101721.81;;;11.69;95.84
9325;BME280;4701;51.566;6.776;2023-02-17T16:44:01;101721.00;;;11.69;95.54
9325;BME280;4701;51.566;6.776;2023-02-17T16:46:04;101740.47;;;11.72;95.26
9325;BME280;4701;51.566;6.776;2023-02-17T16:48:06;101742.69;;;11.75;95.13
9325;BME280;4701;51.566;6.776;2023-02-17T16:50:16;101729.19;;;11.69;95.28
9325;BME280;4701;51.566;6.776;2023-02-17T16:52:22;101741.72;;;11.65;95.65
9325;BME280;4701;51.566;6.776;2023-02-17T16:54:25;101731.91;;;11.69;95.50
9325;BME280;4701;51.566;6.776;2023-02-17T16:56:33;101735.81;;;11.73;95.20
9325;BME280;4701;51.566;6.776;2023-02-17T16:58:35;101739.28;;;11.68;95.56
9325;BME280;4701;51.566;6.776;2023-02-17T17:00:39;101744.44;;;11.65;95.94
9325;BME280;4701;51.566;6.776;2023-02-17T17:02:40;101756.50;;;11.69;95.45
9325;BME280;4701;51.566;6.776;2023-02-17T17:04:42;101756.25;;;11.70;95.33
9325;BME280;4701;51.566;6.776;2023-02-17T17:06:46;101743.44;;;11.71;95.44
9325;BME280;4701;51.566;6.776;2023-02-17T17:08:49;101735.16;;;11.66;95.66
9325;BME280;4701;51.566;6.776;2023-02-17T17:10:51;101735.66;;;11.63;95.85
9325;BME280;4701;51.566;6.776;2023-02-17T17:12:52;101747.16;;;11.65;95.83
9325;BME280;4701;51.566;6.776;2023-02-17T17:14:54;101765.75;;;11.68;95.54
9325;BME280;4701;51.566;6.776;2023-02-17T17:17:00;101767.34;;;11.64;96.36
9325;BME280;4701;51.566;6.776;2023-02-17T17:19:02;101762.44;;;11.66;96.18
9325;BME280;4701;51.566;6.776;2023-02-17T17:21:05;101758.81;;;11.60;96.43
9325;BME280;4701;51.566;6.776;2023-02-17T17:23:10;101785.88;;;11.62;96.55
9325;BME280;4701;51.566;6.776;2023-02-17T17:25:13;101784.22;;;11.61;96.92
9325;BME280;4701;51.566;6.776;2023-02-17T17:27:15;101788.28;;;11.58;96.69
9325;BME280;4701;51.566;6.776;2023-02-17T17:29:17;101780.91;;;11.59;96.76
9325;BME280;4701;51.566;6.776;2023-02-17T17:31:20;101782.81;;;11.58;96.65
9325;BME280;4701;51.566;6.776;2023-02-17T17:33:23;101784.41;;;11.54;96.92
9325;BME280;4701;51.566;6.776;2023-02-17T17:35:26;101787.84;;;11.50;97.56
9325;BME280;4701;51.566;6.776;2023-02-17T17:37:28;101788.94;;;11.49;97.48
9325;BME280;4701;51.566;6.776;2023-02-17T17:39:30;101792.50;;;11.49;97.85
9325;BME280;4701;51.566;6.776;2023-02-17T17:41:32;101804.09;;;11.56;97.53
9325;BME280;4701;51.566;6.776;2023-02-17T17:43:34;101798.63;;;11.56;97.09
9325;BME280;4701;51.566;6.776;2023-02-17T17:45:36;101790.34;;;11.51;97.71
9325;BME280;4701;51.566;6.776;2023-02-17T17:47:38;101806.88;;;11.45;98.02
9325;BME280;4701;51.566;6.776;2023-02-17T17:49:41;101806.31;;;11.43;98.61
9325;BME280;4701;51.566;6.776;2023-02-17T17:51:43;101803.34;;;11.44;98.40
9325;BME280;4701;51.566;6.776;2023-02-17T17:53:45;101800.25;;;11.41;98.51
9325;BME280;4701;51.566;6.776;2023-02-17T17:55:47;101805.41;;;11.37;98.84
9325;BME280;4701;51.566;6.776;2023-02-17T17:57:49;101815.81;;;11.40;98.40
9325;BME280;4701;51.566;6.776;2023-02-17T17:59:52;101810.03;;;11.36;98.83
9325;BME280;4701;51.566;6.776;2023-02-17T18:01:54;101816.78;;;11.34;98.98
9325;BME280;4701;51.566;6.776;2023-02-17T18:03:56;101814.66;;;11.36;98.93
9325;BME280;4701;51.566;6.776;2023-02-17T18:06:01;101813.34;;;11.38;98.83
9325;BME280;4701;51.566;6.776;2023-02-17T18:08:04;101802.16;;;11.40;98.61
9325;BME280;4701;51.566;6.776;2023-02-17T18:10:08;101803.97;;;11.34;98.92
9325;BME280;4701;51.566;6.776;2023-02-17T18:12:13;101815.66;;;11.30;99.29
9325;BME280;4701;51.566;6.776;2023-02-17T18:14:16;101832.94;;;11.35;99.13